CheckWX is a tool to help pilots better visualize weather data.  It is not intended as a substitute for an official pre-flight weather briefing.

10:04:05 UTC

FAGM METAR
Rand Airport
Johannesburg, South Africa
Current

5 hours ago

FAGM 210500Z 35006KT CAVOK 18/07 Q1022
Observed
Mar-21 @ 05:00 UTC
Wind
  • 350° at 6 KTS
Visibility
10,000+ meters
Flight Rules
VFR
Cloud Levels
  • Clear skies
Temperature
18°C / 64°F
Dewpoint
C / 45°F
Humidity
49%
Altimeter
30.18" Hg
Pressure
1021.92 hPa
Previous

19 hours ago

FAGM 201500Z 28007KT 9999 SCT030 27/05 Q1020
Observed
Mar-20 @ 15:00 UTC
Wind
  • 280° at 7 KTS
Visibility
10,000+ meters
Flight Rules
VFR
Cloud Levels
  • Scattered at 3,000' AGL
Temperature
27°C / 81°F
Dewpoint
C / 41°F
Humidity
24%
Altimeter
30.12" Hg
Pressure
1019.92 hPa
Previous

21 hours ago

FAGM 201300Z 29009KT 9999 SCT020 26/10 Q1020
Observed
Mar-20 @ 13:00 UTC
Wind
  • 290° at 9 KTS
Visibility
10,000+ meters
Flight Rules
VFR
Cloud Levels
  • Scattered at 2,000' AGL
Temperature
26°C / 79°F
Dewpoint
10°C / 50°F
Humidity
37%
Altimeter
30.12" Hg
Pressure
1019.92 hPa